sensor_id;sensor_type;location;lat;lon;timestamp;temperature;humidity
31639;DHT22;18248;51.522;7.020;2023-08-06T00:01:54;17.70;99.90
31639;DHT22;18248;51.522;7.020;2023-08-06T00:04:53;17.70;99.90
31639;DHT22;18248;51.522;7.020;2023-08-06T00:07:51;17.70;99.90
31639;DHT22;18248;51.522;7.020;2023-08-06T00:10:50;17.70;99.90
31639;DHT22;18248;51.522;7.020;2023-08-06T00:13:48;17.70;99.90
31639;DHT22;18248;51.522;7.020;2023-08-06T00:16:47;17.70;99.90
31639;DHT22;18248;51.522;7.020;2023-08-06T00:19:45;17.70;99.90
31639;DHT22;18248;51.522;7.020;2023-08-06T00:22:44;17.70;99.90
31639;DHT22;18248;51.522;7.020;2023-08-06T00:25:42;17.60;99.90
31639;DHT22;18248;51.522;7.020;2023-08-06T00:28:41;17.60;99.90
31639;DHT22;18248;51.522;7.020;2023-08-06T00:31:39;17.60;99.90
31639;DHT22;18248;51.522;7.020;2023-08-06T00:34:38;17.60;99.90
31639;DHT22;18248;51.522;7.020;2023-08-06T00:37:36;17.60;99.90
31639;DHT22;18248;51.522;7.020;2023-08-06T00:40:35;17.50;99.90
31639;DHT22;18248;51.522;7.020;2023-08-06T00:43:34;17.50;99.90
31639;DHT22;18248;51.522;7.020;2023-08-06T00:46:34;17.50;99.90
31639;DHT22;18248;51.522;7.020;2023-08-06T00:49:33;17.50;99.90
31639;DHT22;18248;51.522;7.020;2023-08-06T00:52:34;17.40;99.90
31639;DHT22;18248;51.522;7.020;2023-08-06T00:55:35;17.40;99.90
31639;DHT22;18248;51.522;7.020;2023-08-06T00:58:35;17.40;99.90
31639;DHT22;18248;51.522;7.020;2023-08-06T01:01:34;17.40;99.90
31639;DHT22;18248;51.522;7.020;2023-08-06T01:04:33;17.40;99.90
31639;DHT22;18248;51.522;7.020;2023-08-06T01:07:57;17.40;99.90
31639;DHT22;18248;51.522;7.020;2023-08-06T01:14:45;17.50;99.90
31639;DHT22;18248;51.522;7.020;2023-08-06T01:17:46;17.40;99.90
31639;DHT22;18248;51.522;7.020;2023-08-06T01:20:45;17.40;99.90
31639;DHT22;18248;51.522;7.020;2023-08-06T01:23:45;17.40;99.90
31639;DHT22;18248;51.522;7.020;2023-08-06T01:30:03;17.50;99.90
31639;DHT22;18248;51.522;7.020;2023-08-06T01:33:05;17.50;99.90
31639;DHT22;18248;51.522;7.020;2023-08-06T01:36:06;17.50;99.90
31639;DHT22;18248;51.522;7.020;2023-08-06T01:39:06;17.50;99.90
31639;DHT22;18248;51.522;7.020;2023-08-06T01:42:06;17.50;99.90
31639;DHT22;18248;51.522;7.020;2023-08-06T01:45:09;17.50;99.90
31639;DHT22;18248;51.522;7.020;2023-08-06T01:48:07;17.50;99.90
31639;DHT22;18248;51.522;7.020;2023-08-06T01:51:06;17.60;99.90
31639;DHT22;18248;51.522;7.020;2023-08-06T01:54:05;17.60;99.90
31639;DHT22;18248;51.522;7.020;2023-08-06T01:57:05;17.50;99.90
31639;DHT22;18248;51.522;7.020;2023-08-06T02:00:04;17.50;99.90
31639;DHT22;18248;51.522;7.020;2023-08-06T02:03:03;17.50;99.90
31639;DHT22;18248;51.522;7.020;2023-08-06T02:06:01;17.50;99.90
31639;DHT22;18248;51.522;7.020;2023-08-06T02:09:00;17.50;99.90
31639;DHT22;18248;51.522;7.020;2023-08-06T02:11:59;17.50;99.90
31639;DHT22;18248;51.522;7.020;2023-08-06T02:14:57;17.50;99.90
31639;DHT22;18248;51.522;7.020;2023-08-06T02:17:56;17.50;99.90
31639;DHT22;18248;51.522;7.020;2023-08-06T02:20:55;17.50;99.90
31639;DHT22;18248;51.522;7.020;2023-08-06T02:23:55;17.50;99.90
31639;DHT22;18248;51.522;7.020;2023-08-06T02:26:54;17.50;99.90
31639;DHT22;18248;51.522;7.020;2023-08-06T02:29:54;17.50;99.90
31639;DHT22;18248;51.522;7.020;2023-08-06T02:32:53;17.50;99.90
31639;DHT22;18248;51.522;7.020;2023-08-06T02:35:51;17.50;99.90
31639;DHT22;18248;51.522;7.020;2023-08-06T02:38:56;17.50;99.90
31639;DHT22;18248;51.522;7.020;2023-08-06T02:41:55;17.50;99.90
31639;DHT22;18248;51.522;7.020;2023-08-06T02:44:53;17.50;99.90
31639;DHT22;18248;51.522;7.020;2023-08-06T02:47:55;17.50;99.90
31639;DHT22;18248;51.522;7.020;2023-08-06T02:50:57;17.50;99.90
31639;DHT22;18248;51.522;7.020;2023-08-06T02:53:56;17.50;99.90
31639;DHT22;18248;51.522;7.020;2023-08-06T02:56:56;17.50;99.90
31639;DHT22;18248;51.522;7.020;2023-08-06T02:59:56;17.40;99.90
31639;DHT22;18248;51.522;7.020;2023-08-06T03:02:54;17.40;99.90
31639;DHT22;18248;51.522;7.020;2023-08-06T03:05:54;17.40;99.90
31639;DHT22;18248;51.522;7.020;2023-08-06T03:08:52;17.40;99.90
31639;DHT22;18248;51.522;7.020;2023-08-06T03:11:52;17.30;99.90
31639;DHT22;18248;51.522;7.020;2023-08-06T03:14:52;17.30;99.90
31639;DHT22;18248;51.522;7.020;2023-08-06T03:17:55;17.30;99.90
31639;DHT22;18248;51.522;7.020;2023-08-06T03:20:54;17.30;99.90
31639;DHT22;18248;51.522;7.020;2023-08-06T03:23:55;17.30;99.90
31639;DHT22;18248;51.522;7.020;2023-08-06T03:26:54;17.30;99.90
31639;DHT22;18248;51.522;7.020;2023-08-06T03:29:52;17.30;99.90
31639;DHT22;18248;51.522;7.020;2023-08-06T03:32:51;17.30;99.90
31639;DHT22;18248;51.522;7.020;2023-08-06T03:35:49;17.20;99.90
31639;DHT22;18248;51.522;7.020;2023-08-06T03:38:48;17.20;99.90
31639;DHT22;18248;51.522;7.020;2023-08-06T03:41:46;17.20;99.90
31639;DHT22;18248;51.522;7.020;2023-08-06T03:44:45;17.20;99.90
31639;DHT22;18248;51.522;7.020;2023-08-06T03:47:43;17.20;99.90
31639;DHT22;18248;51.522;7.020;2023-08-06T03:50:42;17.20;99.90
31639;DHT22;18248;51.522;7.020;2023-08-06T03:53:40;17.10;99.90
31639;DHT22;18248;51.522;7.020;2023-08-06T03:56:39;17.10;99.90
31639;DHT22;18248;51.522;7.020;2023-08-06T03:59:37;17.10;99.90
31639;DHT22;18248;51.522;7.020;2023-08-06T04:02:36;17.00;99.90
31639;DHT22;18248;51.522;7.020;2023-08-06T04:05:34;17.00;99.90
31639;DHT22;18248;51.522;7.020;2023-08-06T04:08:33;17.00;99.90
31639;DHT22;18248;51.522;7.020;2023-08-06T04:11:31;17.00;99.90
31639;DHT22;18248;51.522;7.020;2023-08-06T04:14:30;16.90;99.90
31639;DHT22;18248;51.522;7.020;2023-08-06T04:17:29;16.90;99.90
31639;DHT22;18248;51.522;7.020;2023-08-06T04:20:27;16.90;99.90
31639;DHT22;18248;51.522;7.020;2023-08-06T04:23:26;16.90;99.90
31639;DHT22;18248;51.522;7.020;2023-08-06T04:26:26;16.90;99.90
31639;DHT22;18248;51.522;7.020;2023-08-06T04:29:24;16.90;99.90
31639;DHT22;18248;51.522;7.020;2023-08-06T04:32:23;16.90;99.90
31639;DHT22;18248;51.522;7.020;2023-08-06T04:35:23;16.90;99.90
31639;DHT22;18248;51.522;7.020;2023-08-06T04:38:23;17.00;99.90
31639;DHT22;18248;51.522;7.020;2023-08-06T04:41:23;17.00;99.90
31639;DHT22;18248;51.522;7.020;2023-08-06T04:44:22;17.00;99.90
31639;DHT22;18248;51.522;7.020;2023-08-06T04:47:20;17.10;99.90
31639;DHT22;18248;51.522;7.020;2023-08-06T04:50:22;17.10;99.90
31639;DHT22;18248;51.522;7.020;2023-08-06T04:53:20;17.10;99.90
31639;DHT22;18248;51.522;7.020;2023-08-06T04:56:19;17.20;99.90
31639;DHT22;18248;51.522;7.020;2023-08-06T04:59:17;17.20;99.90
31639;DHT22;18248;51.522;7.020;2023-08-06T05:02:17;17.30;99.90
31639;DHT22;18248;51.522;7.020;2023-08-06T05:05:15;17.30;99.90
31639;DHT22;18248;51.522;7.020;2023-08-06T05:08:15;17.40;99.90
31639;DHT22;18248;51.522;7.020;2023-08-06T05:11:16;17.40;99.90
31639;DHT22;18248;51.522;7.020;2023-08-06T05:14:15;17.50;99.90
31639;DHT22;18248;51.522;7.020;2023-08-06T05:17:13;17.70;99.90
31639;DHT22;18248;51.522;7.020;2023-08-06T05:20:12;17.80;99.90
31639;DHT22;18248;51.522;7.020;2023-08-06T05:23:12;17.80;99.90
31639;DHT22;18248;51.522;7.020;2023-08-06T05:26:10;18.00;99.90
31639;DHT22;18248;51.522;7.020;2023-08-06T05:29:09;18.10;99.90
31639;DHT22;18248;51.522;7.020;2023-08-06T05:32:08;18.10;99.90
31639;DHT22;18248;51.522;7.020;2023-08-06T05:35:07;18.10;99.90
31639;DHT22;18248;51.522;7.020;2023-08-06T05:38:06;18.20;99.90
31639;DHT22;18248;51.522;7.020;2023-08-06T05:41:06;18.20;99.90
31639;DHT22;18248;51.522;7.020;2023-08-06T05:44:04;18.30;99.90
31639;DHT22;18248;51.522;7.020;2023-08-06T05:47:05;18.30;99.90
31639;DHT22;18248;51.522;7.020;2023-08-06T05:50:04;18.40;99.90
31639;DHT22;18248;51.522;7.020;2023-08-06T05:53:03;18.40;99.90
31639;DHT22;18248;51.522;7.020;2023-08-06T05:56:02;18.50;99.90
31639;DHT22;18248;51.522;7.020;2023-08-06T05:59:00;18.70;99.90
31639;DHT22;18248;51.522;7.020;2023-08-06T06:01:59;18.70;99.90
31639;DHT22;18248;51.522;7.020;2023-08-06T06:04:57;18.80;99.90
31639;DHT22;18248;51.522;7.020;2023-08-06T06:07:56;18.80;99.90
31639;DHT22;18248;51.522;7.020;2023-08-06T06:10:54;18.90;99.90
31639;DHT22;18248;51.522;7.020;2023-08-06T06:13:53;19.00;99.90
31639;DHT22;18248;51.522;7.020;2023-08-06T06:16:51;19.00;99.90
31639;DHT22;18248;51.522;7.020;2023-08-06T06:19:51;19.10;99.90
31639;DHT22;18248;51.522;7.020;2023-08-06T06:22:50;19.10;99.90
31639;DHT22;18248;51.522;7.020;2023-08-06T06:25:50;19.20;99.90
31639;DHT22;18248;51.522;7.020;2023-08-06T06:28:50;19.20;99.90
31639;DHT22;18248;51.522;7.020;2023-08-06T06:31:48;19.20;99.90
31639;DHT22;18248;51.522;7.020;2023-08-06T06:34:47;19.20;99.90
31639;DHT22;18248;51.522;7.020;2023-08-06T06:37:45;19.20;99.90
31639;DHT22;18248;51.522;7.020;2023-08-06T06:40:44;19.10;99.90
31639;DHT22;18248;51.522;7.020;2023-08-06T06:43:51;19.10;99.90
31639;DHT22;18248;51.522;7.020;2023-08-06T06:46:49;19.10;99.90
31639;DHT22;18248;51.522;7.020;2023-08-06T06:49:48;19.10;99.90
31639;DHT22;18248;51.522;7.020;2023-08-06T06:52:47;19.20;99.90
31639;DHT22;18248;51.522;7.020;2023-08-06T06:55:45;19.30;99.90
31639;DHT22;18248;51.522;7.020;2023-08-06T06:58:47;19.60;99.90
31639;DHT22;18248;51.522;7.020;2023-08-06T07:01:45;19.80;99.90
31639;DHT22;18248;51.522;7.020;2023-08-06T07:04:44;20.10;99.90
31639;DHT22;18248;51.522;7.020;2023-08-06T07:07:42;20.30;99.90
31639;DHT22;18248;51.522;7.020;2023-08-06T07:10:42;20.60;99.90
31639;DHT22;18248;51.522;7.020;2023-08-06T07:13:41;21.50;99.90
31639;DHT22;18248;51.522;7.020;2023-08-06T07:16:39;22.10;99.90
31639;DHT22;18248;51.522;7.020;2023-08-06T07:19:38;23.30;99.90
31639;DHT22;18248;51.522;7.020;2023-08-06T07:22:36;24.80;99.90
31639;DHT22;18248;51.522;7.020;2023-08-06T07:25:36;25.10;99.90
31639;DHT22;18248;51.522;7.020;2023-08-06T07:28:35;25.50;99.90
31639;DHT22;18248;51.522;7.020;2023-08-06T07:31:33;25.10;99.90
31639;DHT22;18248;51.522;7.020;2023-08-06T07:34:32;25.30;99.90
31639;DHT22;18248;51.522;7.020;2023-08-06T07:37:32;26.90;99.90
31639;DHT22;18248;51.522;7.020;2023-08-06T07:40:30;28.10;99.90
31639;DHT22;18248;51.522;7.020;2023-08-06T07:43:29;27.90;99.90
31639;DHT22;18248;51.522;7.020;2023-08-06T07:46:27;27.10;99.90
31639;DHT22;18248;51.522;7.020;2023-08-06T07:49:26;26.20;99.90
31639;DHT22;18248;51.522;7.020;2023-08-06T07:52:25;25.40;99.90
31639;DHT22;18248;51.522;7.020;2023-08-06T07:55:24;24.80;99.90
31639;DHT22;18248;51.522;7.020;2023-08-06T07:58:24;24.30;99.90
31639;DHT22;18248;51.522;7.020;2023-08-06T08:01:24;23.90;99.90
31639;DHT22;18248;51.522;7.020;2023-08-06T08:04:24;23.60;99.90
31639;DHT22;18248;51.522;7.020;2023-08-06T08:07:22;23.30;99.90
31639;DHT22;18248;51.522;7.020;2023-08-06T08:10:21;22.90;99.90
31639;DHT22;18248;51.522;7.020;2023-08-06T08:13:21;22.70;99.90
31639;DHT22;18248;51.522;7.020;2023-08-06T08:16:19;22.50;99.90
31639;DHT22;18248;51.522;7.020;2023-08-06T08:19:18;22.30;99.90
31639;DHT22;18248;51.522;7.020;2023-08-06T08:22:16;22.00;99.90
31639;DHT22;18248;51.522;7.020;2023-08-06T08:25:16;21.80;99.90
31639;DHT22;18248;51.522;7.020;2023-08-06T08:28:14;21.60;99.90
31639;DHT22;18248;51.522;7.020;2023-08-06T08:31:13;21.40;99.90
31639;DHT22;18248;51.522;7.020;2023-08-06T08:34:11;21.30;99.90
31639;DHT22;18248;51.522;7.020;2023-08-06T08:37:10;21.20;99.90
31639;DHT22;18248;51.522;7.020;2023-08-06T08:40:10;21.20;99.90
31639;DHT22;18248;51.522;7.020;2023-08-06T08:43:09;21.10;99.90
31639;DHT22;18248;51.522;7.020;2023-08-06T08:46:11;21.00;99.90
31639;DHT22;18248;51.522;7.020;2023-08-06T08:49:11;20.90;99.90
31639;DHT22;18248;51.522;7.020;2023-08-06T08:52:10;20.90;99.90
31639;DHT22;18248;51.522;7.020;2023-08-06T08:55:12;20.80;99.90
31639;DHT22;18248;51.522;7.020;2023-08-06T08:58:12;20.70;99.90
31639;DHT22;18248;51.522;7.020;2023-08-06T09:01:13;20.70;99.90
31639;DHT22;18248;51.522;7.020;2023-08-06T09:04:12;20.60;99.90
31639;DHT22;18248;51.522;7.020;2023-08-06T09:07:14;20.50;99.90
31639;DHT22;18248;51.522;7.020;2023-08-06T09:10:16;20.50;99.90
31639;DHT22;18248;51.522;7.020;2023-08-06T09:13:20;20.50;99.90
31639;DHT22;18248;51.522;7.020;2023-08-06T09:16:19;20.40;99.90
31639;DHT22;18248;51.522;7.020;2023-08-06T09:19:18;20.40;99.90
31639;DHT22;18248;51.522;7.020;2023-08-06T09:22:16;20.40;99.90
31639;DHT22;18248;51.522;7.020;2023-08-06T09:25:25;20.30;99.90
31639;DHT22;18248;51.522;7.020;2023-08-06T09:28:24;20.30;99.90
31639;DHT22;18248;51.522;7.020;2023-08-06T09:31:23;20.30;99.90
31639;DHT22;18248;51.522;7.020;2023-08-06T09:34:22;20.40;99.90
31639;DHT22;18248;51.522;7.020;2023-08-06T09:37:21;20.50;99.90
31639;DHT22;18248;51.522;7.020;2023-08-06T09:40:31;20.60;99.90
31639;DHT22;18248;51.522;7.020;2023-08-06T09:43:29;20.70;99.90
31639;DHT22;18248;51.522;7.020;2023-08-06T09:46:28;20.80;99.90
31639;DHT22;18248;51.522;7.020;2023-08-06T09:52:30;21.10;99.90
31639;DHT22;18248;51.522;7.020;2023-08-06T09:55:29;21.40;99.90
31639;DHT22;18248;51.522;7.020;2023-08-06T09:58:30;21.50;99.90
31639;DHT22;18248;51.522;7.020;2023-08-06T10:01:31;21.60;99.90
31639;DHT22;18248;51.522;7.020;2023-08-06T10:04:30;21.90;99.90
31639;DHT22;18248;51.522;7.020;2023-08-06T10:07:29;22.10;99.90
31639;DHT22;18248;51.522;7.020;2023-08-06T10:10:29;22.10;99.90
31639;DHT22;18248;51.522;7.020;2023-08-06T10:13:29;22.20;99.90
31639;DHT22;18248;51.522;7.020;2023-08-06T10:16:27;22.20;99.90
31639;DHT22;18248;51.522;7.020;2023-08-06T10:19:27;22.10;99.90
31639;DHT22;18248;51.522;7.020;2023-08-06T10:22:27;21.80;99.90
31639;DHT22;18248;51.522;7.020;2023-08-06T10:25:26;21.50;99.90
31639;DHT22;18248;51.522;7.020;2023-08-06T10:28:34;21.30;99.90
31639;DHT22;18248;51.522;7.020;2023-08-06T10:31:54;21.10;99.90
31639;DHT22;18248;51.522;7.020;2023-08-06T10:34:59;21.00;99.90
31639;DHT22;18248;51.522;7.020;2023-08-06T10:38:21;20.90;99.90
31639;DHT22;18248;51.522;7.020;2023-08-06T10:41:28;20.70;99.90
31639;DHT22;18248;51.522;7.020;2023-08-06T10:44:27;20.70;99.90
31639;DHT22;18248;51.522;7.020;2023-08-06T10:47:26;20.70;99.90
31639;DHT22;18248;51.522;7.020;2023-08-06T10:50:25;20.70;99.90
31639;DHT22;18248;51.522;7.020;2023-08-06T10:53:24;20.70;99.90
31639;DHT22;18248;51.522;7.020;2023-08-06T10:56:24;20.70;99.90
31639;DHT22;18248;51.522;7.020;2023-08-06T10:59:24;20.70;99.90
31639;DHT22;18248;51.522;7.020;2023-08-06T11:02:23;20.80;99.90
31639;DHT22;18248;51.522;7.020;2023-08-06T11:05:21;20.80;99.90
31639;DHT22;18248;51.522;7.020;2023-08-06T11:08:28;20.90;99.90
31639;DHT22;18248;51.522;7.020;2023-08-06T11:11:26;20.90;99.90
31639;DHT22;18248;51.522;7.020;2023-08-06T11:14:25;20.80;99.90
31639;DHT22;18248;51.522;7.020;2023-08-06T11:17:24;20.70;99.90
31639;DHT22;18248;51.522;7.020;2023-08-06T11:20:24;20.50;99.90
31639;DHT22;18248;51.522;7.020;2023-08-06T11:23:28;20.40;99.90
31639;DHT22;18248;51.522;7.020;2023-08-06T11:26:27;20.30;99.90
31639;DHT22;18248;51.522;7.020;2023-08-06T11:29:27;20.20;99.90
31639;DHT22;18248;51.522;7.020;2023-08-06T11:32:25;20.10;99.90
31639;DHT22;18248;51.522;7.020;2023-08-06T11:35:25;20.10;99.90
31639;DHT22;18248;51.522;7.020;2023-08-06T11:38:28;20.00;99.90
31639;DHT22;18248;51.522;7.020;2023-08-06T11:41:30;20.10;99.90
31639;DHT22;18248;51.522;7.020;2023-08-06T11:44:36;20.00;99.90
31639;DHT22;18248;51.522;7.020;2023-08-06T11:47:38;20.00;99.90
31639;DHT22;18248;51.522;7.020;2023-08-06T11:50:38;19.70;99.90
31639;DHT22;18248;51.522;7.020;2023-08-06T11:53:37;19.40;99.90
31639;DHT22;18248;51.522;7.020;2023-08-06T11:56:35;19.30;99.90
31639;DHT22;18248;51.522;7.020;2023-08-06T11:59:34;19.30;99.90
31639;DHT22;18248;51.522;7.020;2023-08-06T12:02:32;19.30;99.90
31639;DHT22;18248;51.522;7.020;2023-08-06T12:05:32;19.20;99.90
31639;DHT22;18248;51.522;7.020;2023-08-06T12:08:31;19.00;99.90
31639;DHT22;18248;51.522;7.020;2023-08-06T12:11:30;18.90;99.90
31639;DHT22;18248;51.522;7.020;2023-08-06T12:14:28;18.80;99.90
31639;DHT22;18248;51.522;7.020;2023-08-06T12:17:27;18.70;99.90
31639;DHT22;18248;51.522;7.020;2023-08-06T12:20:25;18.60;99.90
31639;DHT22;18248;51.522;7.020;2023-08-06T12:23:25;18.40;99.90
31639;DHT22;18248;51.522;7.020;2023-08-06T12:26:23;18.30;99.90
31639;DHT22;18248;51.522;7.020;2023-08-06T12:29:22;18.20;99.90
31639;DHT22;18248;51.522;7.020;2023-08-06T12:32:20;18.10;99.90
31639;DHT22;18248;51.522;7.020;2023-08-06T12:35:20;18.10;99.90
31639;DHT22;18248;51.522;7.020;2023-08-06T12:38:20;18.00;99.90
31639;DHT22;18248;51.522;7.020;2023-08-06T12:41:19;17.90;99.90
31639;DHT22;18248;51.522;7.020;2023-08-06T12:44:17;17.80;99.90
31639;DHT22;18248;51.522;7.020;2023-08-06T12:47:17;17.70;99.90
31639;DHT22;18248;51.522;7.020;2023-08-06T12:50:15;17.60;99.90
31639;DHT22;18248;51.522;7.020;2023-08-06T12:53:15;17.60;99.90
31639;DHT22;18248;51.522;7.020;2023-08-06T12:56:14;17.60;99.90
31639;DHT22;18248;51.522;7.020;2023-08-06T12:59:14;17.50;99.90
31639;DHT22;18248;51.522;7.020;2023-08-06T13:02:13;17.60;99.90
31639;DHT22;18248;51.522;7.020;2023-08-06T13:05:11;17.50;99.90
31639;DHT22;18248;51.522;7.020;2023-08-06T13:08:10;17.40;99.90
31639;DHT22;18248;51.522;7.020;2023-08-06T13:11:09;17.40;99.90
31639;DHT22;18248;51.522;7.020;2023-08-06T13:14:09;17.30;99.90
31639;DHT22;18248;51.522;7.020;2023-08-06T13:17:08;17.20;99.90
31639;DHT22;18248;51.522;7.020;2023-08-06T13:20:08;17.30;99.90
31639;DHT22;18248;51.522;7.020;2023-08-06T13:23:07;17.20;99.90
31639;DHT22;18248;51.522;7.020;2023-08-06T13:26:05;17.20;99.90
31639;DHT22;18248;51.522;7.020;2023-08-06T13:29:04;17.20;99.90
31639;DHT22;18248;51.522;7.020;2023-08-06T13:32:03;17.20;99.90
31639;DHT22;18248;51.522;7.020;2023-08-06T13:35:02;17.10;99.90
31639;DHT22;18248;51.522;7.020;2023-08-06T13:38:00;17.20;99.90
31639;DHT22;18248;51.522;7.020;2023-08-06T13:41:01;17.20;99.90
31639;DHT22;18248;51.522;7.020;2023-08-06T13:44:00;17.20;99.90
31639;DHT22;18248;51.522;7.020;2023-08-06T13:46:58;17.20;99.90
31639;DHT22;18248;51.522;7.020;2023-08-06T13:49:57;17.30;99.90
31639;DHT22;18248;51.522;7.020;2023-08-06T13:52:56;17.30;99.90
31639;DHT22;18248;51.522;7.020;2023-08-06T13:55:54;17.30;99.90
31639;DHT22;18248;51.522;7.020;2023-08-06T13:58:53;17.40;99.90
31639;DHT22;18248;51.522;7.020;2023-08-06T14:01:51;17.50;99.90
31639;DHT22;18248;51.522;7.020;2023-08-06T14:04:52;17.50;99.90
31639;DHT22;18248;51.522;7.020;2023-08-06T14:07:51;17.50;99.90
31639;DHT22;18248;51.522;7.020;2023-08-06T14:10:52;17.40;99.90
31639;DHT22;18248;51.522;7.020;2023-08-06T14:13:50;17.40;99.90
31639;DHT22;18248;51.522;7.020;2023-08-06T14:16:53;17.50;99.90
31639;DHT22;18248;51.522;7.020;2023-08-06T14:19:52;17.50;99.90
31639;DHT22;18248;51.522;7.020;2023-08-06T14:22:51;17.60;99.90
31639;DHT22;18248;51.522;7.020;2023-08-06T14:25:49;17.60;99.90
31639;DHT22;18248;51.522;7.020;2023-08-06T14:28:48;17.60;99.90
31639;DHT22;18248;51.522;7.020;2023-08-06T14:31:46;17.60;99.90
31639;DHT22;18248;51.522;7.020;2023-08-06T14:34:45;17.60;99.90
31639;DHT22;18248;51.522;7.020;2023-08-06T14:37:44;17.60;99.90
31639;DHT22;18248;51.522;7.020;2023-08-06T14:40:44;17.70;99.90
31639;DHT22;18248;51.522;7.020;2023-08-06T14:43:42;17.90;99.90
31639;DHT22;18248;51.522;7.020;2023-08-06T14:46:41;17.80;99.90
31639;DHT22;18248;51.522;7.020;2023-08-06T14:49:39;17.90;99.90
31639;DHT22;18248;51.522;7.020;2023-08-06T14:52:38;17.90;99.90
31639;DHT22;18248;51.522;7.020;2023-08-06T14:55:36;17.90;99.90
31639;DHT22;18248;51.522;7.020;2023-08-06T14:58:35;17.80;99.90
31639;DHT22;18248;51.522;7.020;2023-08-06T15:01:35;17.80;99.90
31639;DHT22;18248;51.522;7.020;2023-08-06T15:04:35;17.80;99.90
31639;DHT22;18248;51.522;7.020;2023-08-06T15:07:34;17.70;99.90
31639;DHT22;18248;51.522;7.020;2023-08-06T15:10:33;17.70;99.90
31639;DHT22;18248;51.522;7.020;2023-08-06T15:13:32;17.80;99.90
31639;DHT22;18248;51.522;7.020;2023-08-06T15:16:30;17.80;99.90
31639;DHT22;18248;51.522;7.020;2023-08-06T15:19:29;17.70;99.90
31639;DHT22;18248;51.522;7.020;2023-08-06T15:22:27;17.80;99.90
31639;DHT22;18248;51.522;7.020;2023-08-06T15:25:27;17.80;99.90
31639;DHT22;18248;51.522;7.020;2023-08-06T15:28:26;18.00;99.90
31639;DHT22;18248;51.522;7.020;2023-08-06T15:31:35;18.00;99.90
31639;DHT22;18248;51.522;7.020;2023-08-06T15:34:34;18.00;99.90
31639;DHT22;18248;51.522;7.020;2023-08-06T15:37:33;18.20;99.90
31639;DHT22;18248;51.522;7.020;2023-08-06T15:40:32;18.20;99.90
31639;DHT22;18248;51.522;7.020;2023-08-06T15:43:30;18.20;99.90
31639;DHT22;18248;51.522;7.020;2023-08-06T15:46:29;18.30;99.90
31639;DHT22;18248;51.522;7.020;2023-08-06T15:49:27;18.20;99.90
31639;DHT22;18248;51.522;7.020;2023-08-06T15:52:26;18.20;99.90
31639;DHT22;18248;51.522;7.020;2023-08-06T15:55:24;18.10;99.90
31639;DHT22;18248;51.522;7.020;2023-08-06T15:58:23;18.10;99.90
31639;DHT22;18248;51.522;7.020;2023-08-06T16:01:22;18.10;99.90
31639;DHT22;18248;51.522;7.020;2023-08-06T16:04:25;18.10;99.90
31639;DHT22;18248;51.522;7.020;2023-08-06T16:07:23;18.00;99.90
31639;DHT22;18248;51.522;7.020;2023-08-06T16:10:22;18.00;99.90
31639;DHT22;18248;51.522;7.020;2023-08-06T16:13:21;17.90;99.90
31639;DHT22;18248;51.522;7.020;2023-08-06T16:16:19;17.90;99.90
31639;DHT22;18248;51.522;7.020;2023-08-06T16:19:18;17.80;99.90
31639;DHT22;18248;51.522;7.020;2023-08-06T16:22:20;17.80;99.90
31639;DHT22;18248;51.522;7.020;2023-08-06T16:25:18;17.80;99.90
31639;DHT22;18248;51.522;7.020;2023-08-06T16:28:17;17.70;99.90
31639;DHT22;18248;51.522;7.020;2023-08-06T16:31:15;17.70;99.90
31639;DHT22;18248;51.522;7.020;2023-08-06T16:34:14;17.60;99.90
31639;DHT22;18248;51.522;7.020;2023-08-06T16:37:12;17.60;99.90
31639;DHT22;18248;51.522;7.020;2023-08-06T16:40:12;17.60;99.90
31639;DHT22;18248;51.522;7.020;2023-08-06T16:43:11;17.50;99.90
31639;DHT22;18248;51.522;7.020;2023-08-06T16:46:09;17.40;99.90
31639;DHT22;18248;51.522;7.020;2023-08-06T16:49:08;17.40;99.90
31639;DHT22;18248;51.522;7.020;2023-08-06T16:52:07;17.40;99.90
31639;DHT22;18248;51.522;7.020;2023-08-06T16:55:06;17.40;99.90
31639;DHT22;18248;51.522;7.020;2023-08-06T16:58:06;17.40;99.90
31639;DHT22;18248;51.522;7.020;2023-08-06T17:01:05;17.40;99.90
31639;DHT22;18248;51.522;7.020;2023-08-06T17:04:04;17.40;99.90
31639;DHT22;18248;51.522;7.020;2023-08-06T17:07:02;17.30;99.90
31639;DHT22;18248;51.522;7.020;2023-08-06T17:10:01;17.30;99.90
31639;DHT22;18248;51.522;7.020;2023-08-06T17:13:02;17.30;99.90
31639;DHT22;18248;51.522;7.020;2023-08-06T17:16:02;17.30;99.90
31639;DHT22;18248;51.522;7.020;2023-08-06T17:19:00;17.20;99.90
31639;DHT22;18248;51.522;7.020;2023-08-06T17:21:59;17.30;99.90
31639;DHT22;18248;51.522;7.020;2023-08-06T17:24:59;17.30;99.90
31639;DHT22;18248;51.522;7.020;2023-08-06T17:27:57;17.30;99.90
31639;DHT22;18248;51.522;7.020;2023-08-06T17:30:56;17.30;99.90
31639;DHT22;18248;51.522;7.020;2023-08-06T17:33:54;17.20;99.90
31639;DHT22;18248;51.522;7.020;2023-08-06T17:36:53;17.20;99.90
31639;DHT22;18248;51.522;7.020;2023-08-06T17:39:52;17.20;99.90
31639;DHT22;18248;51.522;7.020;2023-08-06T17:42:50;17.20;99.90
31639;DHT22;18248;51.522;7.020;2023-08-06T17:45:50;17.10;99.90
31639;DHT22;18248;51.522;7.020;2023-08-06T17:48:48;17.10;99.90
31639;DHT22;18248;51.522;7.020;2023-08-06T17:51:47;17.10;99.90
31639;DHT22;18248;51.522;7.020;2023-08-06T17:54:46;17.10;99.90
31639;DHT22;18248;51.522;7.020;2023-08-06T17:57:46;17.10;99.90
31639;DHT22;18248;51.522;7.020;2023-08-06T18:00:44;17.10;99.90
31639;DHT22;18248;51.522;7.020;2023-08-06T18:03:46;17.10;99.90
31639;DHT22;18248;51.522;7.020;2023-08-06T18:06:47;17.00;99.90
31639;DHT22;18248;51.522;7.020;2023-08-06T18:09:46;17.00;99.90
31639;DHT22;18248;51.522;7.020;2023-08-06T18:12:44;16.90;99.90
31639;DHT22;18248;51.522;7.020;2023-08-06T18:15:43;16.80;99.90
31639;DHT22;18248;51.522;7.020;2023-08-06T18:18:42;16.70;99.90
31639;DHT22;18248;51.522;7.020;2023-08-06T18:21:40;16.70;99.90
31639;DHT22;18248;51.522;7.020;2023-08-06T18:24:41;16.70;99.90
31639;DHT22;18248;51.522;7.020;2023-08-06T18:27:40;16.60;99.90
31639;DHT22;18248;51.522;7.020;2023-08-06T18:30:41;16.60;99.90
31639;DHT22;18248;51.522;7.020;2023-08-06T18:33:40;16.50;99.90
31639;DHT22;18248;51.522;7.020;2023-08-06T18:36:38;16.50;99.90
31639;DHT22;18248;51.522;7.020;2023-08-06T18:39:37;16.40;99.90
31639;DHT22;18248;51.522;7.020;2023-08-06T18:42:37;16.40;99.90
31639;DHT22;18248;51.522;7.020;2023-08-06T18:45:37;16.40;99.90
31639;DHT22;18248;51.522;7.020;2023-08-06T18:48:38;16.30;99.90
31639;DHT22;18248;51.522;7.020;2023-08-06T18:51:37;16.20;99.90
31639;DHT22;18248;51.522;7.020;2023-08-06T18:54:37;16.20;99.90
31639;DHT22;18248;51.522;7.020;2023-08-06T18:57:35;16.20;99.90
31639;DHT22;18248;51.522;7.020;2023-08-06T19:00:39;16.20;99.90
31639;DHT22;18248;51.522;7.020;2023-08-06T19:03:38;16.20;99.90